الصفحة الرئيسية
METAR-TAF:

METAR-TAF

مطار :

هونيارا, جوادالكانال, جزر سولومون

دائرة عرض: 09-25S, خط طول: 160-03E, ارتفاع: 8 متر

مراقبة الطقس الحالي

تاريخ ووقت الإصدار 40 دقيقة قبل الساعة 15:00UTC
ريح 2 عقدة من الجنوب
درجة الحرارة 24°درجة مئوية
الرطوبة 100%
ضغط 1007 hPa
الرؤية 10 كم أو أكثر
غيوم قليلة على ارتفاع 1400 قدم
غيوم مفككة على ارتفاع 30000 قدم
العجاج

METAR: AGGH 251500Z 18002KT 9999 HZ FEW014 BKN300 24/24 Q1007

زمن: 02:40 (15:40 UTC)

توقعات

تاريخ ووقت الإصدار 4ساعات و 39 دقيقة قبل الساعة 11:01UTC
التوقعات صالحة من25 الساعة 12 UTC إلى 26 الساعة 12 UTC
ريح 3 عقدةمن اتجاهات متغيرة
الرؤية 10 كم أو أكثر
غيوم قليلة على ارتفاع 1600 قدم
غيوم متفرقة على ارتفاع 3000 قدم
نظرية الاحتمالات 40%
بين IN و TE UTC
الرؤية: 1007 متر
غيوم متفرقة على ارتفاع 1500 قدم
غيوم قليلة على ارتفاع 1600 قدم, مزنة ركامية.

TAF: AGGH 251101Z 2512/2612 VRB03KT 9999 FEW016 SCT030 PROB40 INTER 2512/2518 9999 -TSSH SCT015 FEW016CB T 26 25 24 26 Q 1008 1006 1005 1007

أرصاد الطقس والتوقعات من أكثر من 4000 مطار (تقارير الطقس للمطار METAR والتنبؤ بالطقس بالمطارTAF).

المحطات المتاحة هي النقط الصفراء والحمراء على الخريطة.

حرك المؤشر فوق النقطة لمعرفة اسم المحطة.

ثم انقر لمعرفة أرصاد وتوقعات الطقس.

لتغيير الخارطة: اضغط على الأزرار الخضراء مع رمز الصليب الأسود للتكبير. على الزر الأخضر مع شرطة للتصغير، أو على الأسهم الخضراء للخرائط المجاورة.


METAR-TAF: